• Join FlightAware (Why Join?)
  • Login
  • US Flag 
12:45PM EDT


 

Airport Tracker/Info


-or-


 

Live Flight TrackerFlight Track Log ✈ N747NA ✈ 20-Jun-2013 ✈ KPMD - KPMD

Flight Track Log - Related Links

Times and Time Zones

All times are in EDT time to prevent confusion due to time zone crossing. See the N747NA flight status page for this flight to view local times or setup timezone preferences in your user account.

Time Position Orientation Groundspeed Altitude Reporting Facility
EDT Latitude Longitude Course Direction KTS MPH feet Rate Location/Type
10:50PM 34.6722 -118.0906 47° Northeast 251 289 4,900  Level Los Angeles Center
10:51PM 34.6800 -117.9983 84° East 266 306 6,900 1,560 Climbing Los Angeles Center
10:52PM 34.6917 -117.9008 82° East 278 320 8,200 1,440 Climbing Los Angeles Center
10:53PM 34.7053 -117.7931 81° East 309 356 9,900 1,500 Climbing Los Angeles Center
10:54PM 34.6294 -118.0845 80° East  Level Estimated
10:54PM 34.7231 -117.6556 81° East 340 391 11,400  Level Los Angeles Center
10:55PM 34.6294 -118.0845 47° Northeast  Level Estimated
10:55PM 34.7406 -117.5294 80° East 378 435 12,800  Level Los Angeles Center
10:56PM 34.7719 -117.3978 74° East 405 466 13,900 1,500 Climbing Los Angeles Center
10:57PM 34.8039 -117.2622 74° East 418 481 15,900 1,920 Climbing Los Angeles Center
10:58PM 34.8353 -117.1258 74° East 421 484 17,900 1,980 Climbing Los Angeles Center
10:59PM 34.8717 -116.9639 75° East 417 480 20,100 1,680 Climbing Los Angeles Center
11:00PM 34.9033 -116.8272 74° East 419 482 21,400 1,080 Climbing Los Angeles Center
11:01PM 34.9367 -116.6869 74° East 427 491 22,400 1,080 Climbing Los Angeles Center
11:02PM 34.9903 -116.5514 64° Northeast 436 502 23,700 1,200 Climbing Los Angeles Center
11:03PM 35.0772 -116.4011 55° Northeast 445 512 25,000 1,140 Climbing Los Angeles Center
11:04PM 35.1606 -116.2814 50° Northeast 453 521 26,100 1,140 Climbing Los Angeles Center
11:05PM 35.2611 -116.1328 50° Northeast 469 540 27,700 1,320 Climbing Los Angeles Center
11:06PM 35.3456 -116.0092 50° Northeast 473 544 29,200 1,080 Climbing Los Angeles Center
11:08PM 35.4292 -115.8808 51° Northeast 481 554 30,000 780 Climbing Los Angeles Center
11:09PM 35.5300 -115.7350 50° Northeast 496 571 30,900 720 Climbing Los Angeles Center
11:10PM 35.6183 -115.6028 51° Northeast 501 577 31,600 660 Climbing Los Angeles Center
11:11PM 35.7081 -115.4678 51° Northeast 505 581 32,300 840 Climbing Los Angeles Center
11:12PM 35.8186 -115.2997 51° Northeast 522 601 33,400 960 Climbing Los Angeles Center
11:13PM 35.9083 -115.1606 51° Northeast 524 603 34,300 720 Climbing Los Angeles Center
11:14PM 36.0000 -115.0211 51° Northeast 526 605 35,000 720 Climbing Los Angeles Center
11:15PM 36.0883 -114.8831 52° Northeast 520 598 35,900 540 Climbing Los Angeles Center
11:16PM 36.1719 -114.7436 53° Northeast 512 589 36,200 240 Climbing Los Angeles Center
11:17PM 36.2861 -114.5897 47° Northeast 515 593 36,400 300 Climbing Los Angeles Center
11:18PM 36.4114 -114.5092 27° Northeast 514 592 36,900 420 Climbing Los Angeles Center
11:19PM 36.5336 -114.4222 30° Northeast 509 586 37,300 360 Climbing Los Angeles Center
11:20PM 36.6544 -114.3314 31° Northeast 509 586 37,700 240 Climbing Los Angeles Center
11:21PM 36.7792 -114.2475 28° Northeast 511 588 37,900 120 Climbing Los Angeles Center
11:22PM 36.9292 -114.1456 29° Northeast 511 588 38,000  Climbing Los Angeles Center
11:23PM 37.0281 -114.0758 29° Northeast 511 588 37,900 -60 Descending Los Angeles Center
11:24PM 37.1794 -113.9706 29° Northeast 517 595 37,900  Level Los Angeles Center
11:25PM 37.3392 -113.8597 29° Northeast 517 595 37,900  Level Los Angeles Center
11:26PM 37.4647 -113.7725 29° Northeast 515 593 37,900  Level Los Angeles Center
11:27PM 37.5892 -113.6847 29° Northeast 512 589 37,900  Level Los Angeles Center
11:28PM 37.7125 -113.5964 30° Northeast 508 585 37,900  Level Los Angeles Center
11:29PM 37.8347 -113.5069 30° Northeast 505 581 37,900 -180 Level Los Angeles Center
11:31PM 37.9819 -113.4003 30° Northeast 504 580 37,600 -480 Descending Los Angeles Center
11:32PM 38.1056 -113.3106 30° Northeast 507 583 37,000 -240 Descending Los Angeles Center
11:33PM 38.2292 -113.2225 29° Northeast 507 583 37,100  Climbing Los Angeles Center
11:34PM 38.3525 -113.1336 29° Northeast 506 582 37,100 -60 Level Salt Lake Center
11:35PM 38.4778 -113.0428 30° Northeast 513 590 37,000 -60 Descending Salt Lake Center
11:36PM 38.6019 -112.9531 29° Northeast 513 590 37,000  Level Salt Lake Center
11:37PM 38.7281 -112.8636 29° Northeast 516 594 37,000  Level Salt Lake Center
11:38PM 38.8792 -112.7550 29° Northeast 518 596 37,100  Climbing Salt Lake Center
11:39PM 39.0056 -112.6642 29° Northeast 521 600 37,100 -60 Level Salt Lake Center
11:40PM 39.1331 -112.5733 29° Northeast 523 602 37,000 -60 Descending Salt Lake Center
11:41PM 39.2689 -112.4733 30° Northeast 519 597 37,000  Level Salt Lake Center
11:42PM 39.3950 -112.3836 29° Northeast 518 596 37,000  Level Salt Lake Center
11:43PM 39.5206 -112.2947 29° Northeast 518 596 37,100  Climbing Salt Lake Center
11:44PM 39.6475 -112.2033 29° Northeast 521 600 37,100  Level Salt Lake Center
11:45PM 39.7750 -112.1119 29° Northeast 525 604 37,100  Level Salt Lake Center
11:46PM 39.9053 -112.0197 28° Northeast 532 612 37,200 180 Climbing Salt Lake Center
11:47PM 40.0381 -111.9325 27° Northeast 535 616 37,500 420 Climbing Salt Lake Center
11:48PM 40.1750 -111.8661 20° North 527 606 38,100 420 Climbing Salt Lake Center
11:49PM 40.3433 -111.8003 17° North 525 604 38,400 240 Climbing Salt Lake Center
11:50PM 40.4817 -111.7458 17° North 523 602 38,600 180 Climbing Salt Lake Center
11:51PM 40.6197 -111.6919 17° North 520 598 38,800 180 Climbing Salt Lake Center
11:52PM 40.7594 -111.6375 16° North 524 603 39,000 60 Climbing Salt Lake Center
11:53PM 40.8975 -111.5825 17° North 526 605 39,000 -60 Level Salt Lake Center
11:54PM 41.0344 -111.5258 17° North 526 605 38,900  Descending Salt Lake Center
11:55PM 41.1989 -111.4575 17° North 525 604 39,000  Climbing Salt Lake Center
11:56PM 41.3367 -111.3983 18° North 524 603 39,000 -60 Level Salt Lake Center
11:57PM 41.4747 -111.3394 18° North 522 601 38,900 -60 Descending Salt Lake Center
11:58PM 41.6119 -111.2822 17° North 519 597 38,900  Level Salt Lake Center
11:59PM 41.7500 -111.2228 18° North 521 600 38,900  Level Salt Lake Center
12:00AM 41.8875 -111.1631 18° North 521 600 38,900  Level Salt Lake Center
12:01AM 42.0250 -111.1050 17° North 519 597 39,000  Climbing Salt Lake Center
12:02AM 42.1628 -111.0478 17° North 519 597 38,900  Descending Salt Lake Center
12:03AM 42.3283 -110.9781 17° North 520 598 39,000  Climbing Salt Lake Center
12:04AM 42.4614 -110.9214 17° North 523 602 39,000  Level Salt Lake Center
12:05AM 42.5967 -110.8642 17° North 529 609 39,000 -60 Level Salt Lake Center
12:06AM 42.7592 -110.7950 17° North 532 612 38,900  Descending Salt Lake Center
12:07AM 42.8947 -110.7394 17° North 533 613 39,000  Climbing Salt Lake Center
12:08AM 43.0306 -110.6853 16° North 532 612 39,000 -60 Level Salt Lake Center
12:09AM 43.1892 -110.6119 19° North 542 624 38,900 -60 Descending Salt Lake Center
12:10AM 43.2969 -110.4803 42° Northeast 559 643 38,900  Level Salt Lake Center
12:12AM 43.3272 -110.2553 79° East 546 628 38,900  Level Salt Lake Center
12:13AM 43.2497 -110.1056 125° Southeast 507 583 39,000  Climbing Salt Lake Center
12:14AM 43.1367 -110.0133 149° Southeast 488 562 39,000 -60 Level Salt Lake Center
12:15AM 43.0061 -109.9017 148° Southeast 494 568 38,900  Descending Salt Lake Center
12:16AM 42.8950 -109.8086 148° Southeast 497 572 39,000  Climbing Salt Lake Center
12:17AM 42.7631 -109.6961 148° Southeast 500 575 39,000 -60 Level Salt Lake Center
12:18AM 42.6475 -109.6036 150° Southeast 502 578 38,900 -60 Descending Salt Lake Center
12:19AM 42.5333 -109.5064 148° Southeast 504 580 38,900  Level Salt Lake Center
12:20AM 42.4003 -109.3939 148° Southeast 505 581 39,000  Climbing Salt Lake Center
12:21AM 42.2872 -109.2969 148° Southeast 504 580 38,900 -60 Descending Salt Lake Center
12:22AM 42.1747 -109.2047 149° Southeast 497 572 38,900  Level Salt Lake Center
12:23AM 42.0428 -109.1033 150° Southeast 491 565 38,900  Level Salt Lake Center
12:24AM 41.9303 -109.0189 151° Southeast 486 559 38,900  Level Salt Lake Center
12:25AM 41.8019 -108.9253 151° Southeast 473 544 38,900  Level Salt Lake Center
12:26AM 41.6922 -108.8428 151° Southeast 469 540 38,900  Level Salt Lake Center
12:27AM 41.5808 -108.7581 150° Southeast 475 547 39,000  Climbing Salt Lake Center
12:28AM 41.4492 -108.6583 150° Southeast 482 555 39,000  Level Salt Lake Center
12:29AM 41.3342 -108.5764 152° Southeast 485 558 39,000  Level Salt Lake Center
12:30AM 41.2192 -108.4900 151° Southeast 492 566 39,000 -60 Level Salt Lake Center
12:31AM 41.1233 -108.4178 150° Southeast 493 567 38,900 -60 Descending Denver Center
12:32AM 40.9903 -108.3161 150° Southeast 494 568 38,900  Level Denver Center
12:33AM 40.8761 -108.2306 150° Southeast 492 566 38,900  Level Denver Center
12:34AM 40.7617 -108.1467 151° Southeast 490 564 38,900  Level Denver Center
12:35AM 40.6375 -108.0564 151° Southeast 493 567 39,000  Climbing Denver Center
12:36AM 40.5033 -107.9592 151° Southeast 491 565 39,000 -60 Level Denver Center
12:37AM 40.3908 -107.8800 152° Southeast 481 554 38,900  Descending Denver Center
12:38AM 40.2792 -107.8006 152° Southeast 476 548 39,000  Climbing Denver Center
12:39AM 40.1489 -107.7089 152° Southeast 474 545 39,000  Level Denver Center
12:40AM 40.0336 -107.6303 152° Southeast 482 555 39,000  Level Denver Center
12:41AM 39.9200 -107.5542 153° Southeast 479 551 39,000 -60 Level Denver Center
12:42AM 39.7864 -107.4675 154° Southeast 478 550 38,900  Descending Denver Center
12:43AM 39.6514 -107.3814 154° Southeast 478 550 39,000  Climbing Denver Center
12:44AM 39.5183 -107.2942 153° Southeast 478 550 39,000 -60 Level Denver Center
12:45AM 39.4022 -107.2203 154° Southeast 482 555 38,900 -60 Descending Denver Center
12:46AM 39.2703 -107.1361 154° Southeast 474 545 38,900  Level Denver Center
12:47AM 39.1581 -107.0664 154° Southeast 466 536 39,000  Climbing Denver Center
12:48AM 39.0469 -106.9972 154° Southeast 464 534 38,900  Descending Denver Center
12:49AM 38.9167 -106.9175 155° Southeast 463 533 39,000  Climbing Denver Center
12:50AM 38.8175 -106.8581 155° Southeast 470 541 39,000  Level Denver Center
12:51AM 38.6747 -106.7736 155° Southeast 474 545 39,000  Level Denver Center
12:52AM 38.5553 -106.6997 154° Southeast 474 545 39,000 -60 Level Denver Center
12:53AM 38.4339 -106.6283 155° Southeast 481 554 38,900  Descending Denver Center
12:54AM 38.3050 -106.5497 154° Southeast 479 551 39,000  Climbing Denver Center
12:55AM 38.1933 -106.4781 153° Southeast 482 555 38,900 -60 Descending Denver Center
12:56AM 38.0658 -106.3964 153° Southeast 471 542 38,900  Level Denver Center
12:57AM 37.9564 -106.3233 152° Southeast 466 536 39,000  Climbing Denver Center
12:58AM 37.8461 -106.2517 153° Southeast 466 536 38,900 -60 Descending Denver Center
12:59AM 37.7181 -106.1689 153° Southeast 464 534 38,900  Level Denver Center
01:00AM 37.6069 -106.0986 153° Southeast 466 536 39,000  Climbing Denver Center
01:01AM 37.4831 -106.0231 154° Southeast 470 541 39,000  Level Denver Center
01:02AM 37.3686 -105.9544 155° Southeast 471 542 39,000  Level Denver Center
01:04AM 37.2367 -105.8744 154° Southeast 471 542 39,000  Level Denver Center
01:05AM 37.1531 -105.8250 155° Southeast 472 543 39,000 -60 Level Denver Center
01:06AM 36.9978 -105.7322 154° Southeast 479 551 38,900  Descending Denver Center
01:07AM 36.8828 -105.6631 154° Southeast 481 554 39,000  Climbing Denver Center
01:08AM 36.7489 -105.5831 154° Southeast 479 551 38,900  Descending Denver Center
01:09AM 36.6344 -105.5167 155° Southeast 476 548 39,000  Climbing Denver Center
01:10AM 36.5194 -105.4478 154° Southeast 478 550 39,000  Level Denver Center
01:11AM 36.4006 -105.3794 155° Southeast 476 548 39,000 -60 Level Denver Center
01:12AM 36.2219 -105.2750 155° Southeast 478 550 38,900 -60 Descending Albuquerque Center
01:13AM 36.1025 -105.2028 154° Southeast 475 547 38,900  Level Albuquerque Center
01:14AM 35.9808 -105.1344 156° South 475 547 39,000  Climbing Albuquerque Center
01:15AM 35.8572 -105.0758 159° South 471 542 38,900 -60 Descending Albuquerque Center
01:16AM 35.7347 -105.0183 159° South 469 540 38,900  Level Albuquerque Center
01:17AM 35.6164 -104.9600 158° South 461 531 38,900  Level Albuquerque Center
01:18AM 35.5008 -104.8908 154° Southeast 460 529 39,000  Climbing Albuquerque Center
01:19AM 35.3878 -104.8217 153° Southeast 454 522 39,000  Level Albuquerque Center
01:20AM 35.2733 -104.7575 155° Southeast 452 520 39,000  Level Albuquerque Center
01:21AM 35.1567 -104.6947 156° South 455 524 39,000 -60 Level Albuquerque Center
01:22AM 35.0419 -104.6328 156° South 453 521 38,900  Descending Albuquerque Center
01:23AM 34.9306 -104.5719 156° South 443 510 39,000  Climbing Albuquerque Center
01:24AM 34.8236 -104.5033 152° Southeast 435 501 39,000  Level Albuquerque Center
01:25AM 34.7158 -104.4361 153° Southeast 433 498 39,000 -60 Level Albuquerque Center
01:26AM 34.6058 -104.3658 152° Southeast 440 506 38,900 -60 Descending Albuquerque Center
01:27AM 34.4922 -104.3208 162° South 433 498 38,900  Level Albuquerque Center
01:28AM 34.4006 -104.3983 215° Southwest 416 479 38,900  Level Albuquerque Center
01:29AM 34.3439 -104.5253 242° Southwest 423 487 39,000  Climbing Albuquerque Center
01:30AM 34.2936 -104.6511 244° Southwest 416 479 39,000 -60 Level Albuquerque Center
01:31AM 34.3361 -104.7983 289° West 457 526 38,900 -60 Descending Albuquerque Center
01:32AM 34.4689 -104.8656 337° Northwest 508 585 38,900  Level Albuquerque Center
01:33AM 34.6167 -104.8242 13° North 535 616 39,000  Climbing Albuquerque Center
01:34AM 34.7689 -104.7992 North 550 633 39,000  Level Albuquerque Center
01:35AM 34.9228 -104.8111 356° North 548 631 39,000  Level Albuquerque Center
01:36AM 35.0756 -104.8392 351° North 546 628 39,000 -60 Level Albuquerque Center
01:37AM 35.2250 -104.8678 351° North 540 621 38,900  Descending Albuquerque Center
01:38AM 35.3708 -104.8936 352° North 528 608 39,000  Climbing Albuquerque Center
01:39AM 35.5158 -104.9181 352° North 520 598 39,000  Level Albuquerque Center
01:40AM 35.6600 -104.9419 352° North 517 595 39,000  Level Albuquerque Center
01:41AM 35.8028 -104.9689 351° North 515 593 39,000  Level Albuquerque Center
01:42AM 35.9500 -104.9942 352° North 521 600 39,000  Level Albuquerque Center
01:43AM 36.0964 -105.0231 351° North 525 604 39,000  Level Albuquerque Center
01:44AM 36.2425 -105.0539 350° North 526 605 39,000  Level Albuquerque Center
01:45AM 36.3878 -105.0847 350° North 525 604 39,000  Level Albuquerque Center
01:46AM 36.5308 -105.1172 350° North 519 597 39,000  Level Albuquerque Center
01:47AM 36.6719 -105.1503 349° North 512 589 39,000  Level Albuquerque Center
01:48AM 36.8125 -105.1839 349° North 511 588 39,000 -60 Level Albuquerque Center
01:49AM 36.9250 -105.2136 348° North 510 587 38,900  Descending Denver Center
01:50AM 37.0814 -105.2522 349° North 509 586 39,000  Climbing Denver Center
01:51AM 37.2169 -105.2836 350° North 513 590 39,000  Level Denver Center
01:52AM 37.3603 -105.3172 349° North 503 579 39,000  Level Denver Center
01:53AM 37.4933 -105.3489 349° North 507 583 39,000  Level Denver Center
01:54AM 37.6364 -105.3831 349° North 505 581 39,000  Level Denver Center
01:55AM 37.7689 -105.4139 350° North 503 579 39,000  Level Denver Center
01:56AM 37.8969 -105.4472 348° North 493 567 39,000 -60 Level Denver Center
01:57AM 38.0469 -105.4839 349° North 490 564 38,900  Descending Denver Center
01:58AM 38.1756 -105.5153 349° North 490 564 39,000  Climbing Denver Center
01:59AM 38.3014 -105.5467 349° North 482 555 39,000  Level Denver Center
02:00AM 38.4383 -105.5800 349° North 484 557 39,000  Level Denver Center
02:01AM 38.5708 -105.6131 349° North 484 557 39,000  Level Denver Center
02:02AM 38.7044 -105.6458 349° North 488 562 39,000  Level Denver Center
02:03AM 38.8411 -105.6800 349° North 495 570 39,000  Level Denver Center
02:04AM 38.9783 -105.7133 349° North 500 575 39,000  Level Denver Center
02:05AM 39.1169 -105.7447 350° North 504 580 39,000  Level Denver Center
02:06AM 39.2567 -105.7800 349° North 507 583 39,000  Level Denver Center
02:07AM 39.3972 -105.8142 349° North 511 588 39,000  Level Denver Center
02:08AM 39.5389 -105.8442 351° North 513 590 39,000  Level Denver Center
02:09AM 39.6792 -105.8731 351° North 510 587 39,000  Level Denver Center
02:10AM 39.8192 -105.9022 351° North 509 586 39,000  Level Denver Center
02:11AM 39.9583 -105.9297 351° North 506 582 39,000 180 Level Denver Center
02:12AM 40.0953 -105.9578 351° North 499 574 39,400 300 Climbing Denver Center
02:13AM 40.2333 -105.9875 351° North 501 577 39,700 360 Climbing Denver Center
02:14AM 40.3731 -106.0181 351° North 509 586 40,200 300 Climbing Denver Center
02:15AM 40.5136 -106.0478 351° North 511 588 40,400 180 Climbing Denver Center
02:16AM 40.6564 -106.0750 352° North 516 594 40,600 240 Climbing Denver Center
02:17AM 40.7975 -106.1039 351° North 514 592 41,000 180 Climbing Denver Center
02:18AM 40.9397 -106.1306 352° North 516 594 41,000  Level Denver Center
02:19AM 41.0753 -106.1539 353° North 514 592 41,000  Level Denver Center
02:20AM 41.2414 -106.1842 352° North 506 582 41,000  Level Denver Center
02:21AM 41.3717 -106.2058 353° North 507 583 41,000  Level Denver Center
02:23AM 41.5292 -106.2331 353° North 510 587 41,000  Level Denver Center
02:24AM 41.6628 -106.2542 353° North 508 585 41,000  Level Denver Center
02:25AM 41.7983 -106.2764 353° North 511 588 41,000  Level Denver Center
02:26AM 41.9583 -106.3036 353° North 516 594 41,000  Level Denver Center
02:27AM 42.0933 -106.3242 354° North 512 589 41,000  Level Denver Center
02:28AM 42.2300 -106.3467 353° North 515 593 41,000  Level Denver Center
02:29AM 42.3669 -106.3669 354° North 515 593 41,000  Level Denver Center
02:30AM 42.5244 -106.3931 353° North 511 588 41,000  Level Denver Center
02:31AM 42.6792 -106.4208 352° North 504 580 41,000  Level Denver Center
02:32AM 42.8578 -106.4542 352° North 505 581 41,000  Level Denver Center
02:33AM 42.9889 -106.4825 351° North 502 578 41,000  Level Denver Center
02:34AM 43.1197 -106.5114 351° North 500 575 41,000  Level Denver Center
02:35AM 43.2300 -106.5367 351° North 500 575 41,000  Level Denver Center
02:36AM 43.3650 -106.6783 323° Northwest 492 566 41,000  Level Denver Center
02:37AM 43.3739 -106.8439 274° West 460 529 41,000  Level Denver Center
02:38AM 43.3489 -106.9511 252° West 453 521 41,000  Level Salt Lake Center
02:39AM 43.3058 -107.1053 249° West 452 520 41,000  Level Salt Lake Center
02:40AM 43.2489 -107.2825 246° West 452 520 41,000  Level Salt Lake Center
02:41AM 43.1975 -107.4350 245° Southwest 455 524 41,000  Level Salt Lake Center
02:43AM 43.0958 -107.7611 247° West 450 518 41,000  Level Salt Lake Center
02:44AM 43.0519 -107.9092 248° West 446 513 41,000  Level Salt Lake Center
02:45AM 43.0122 -108.0567 250° West 439 505 41,000  Level Salt Lake Center
02:46AM 42.9681 -108.2258 250° West 431 496 41,000  Level Salt Lake Center
02:47AM 42.9325 -108.3717 252° West 425 489 41,000  Level Salt Lake Center
02:48AM 42.8975 -108.5175 252° West 423 487 41,000  Level Salt Lake Center
02:49AM 42.8594 -108.6606 250° West 422 486 41,000  Level Salt Lake Center
02:50AM 42.8183 -108.8294 252° West 422 486 41,000  Level Salt Lake Center
02:51AM 42.7831 -108.9728 252° West 419 482 41,000  Level Salt Lake Center
02:52AM 42.7442 -109.1158 250° West 422 486 41,000  Level Salt Lake Center
02:53AM 42.6950 -109.2797 248° West 421 484 41,000  Level Salt Lake Center
02:54AM 42.6564 -109.4269 250° West 428 493 41,000  Level Salt Lake Center
02:55AM 42.6161 -109.5736 250° West 433 498 41,000  Level Salt Lake Center
02:56AM 42.5697 -109.7475 250° West 438 504 41,000  Level Salt Lake Center
02:57AM 42.5294 -109.8989 250° West 444 511 41,000  Level Salt Lake Center
02:58AM 42.4883 -110.0503 250° West 448 516 41,000  Level Salt Lake Center
02:59AM 42.4381 -110.2278 249° West 453 521 41,000  Level Salt Lake Center
03:00AM 42.3956 -110.3800 249° West 453 521 41,000  Level Salt Lake Center
03:01AM 42.3533 -110.5344 250° West 456 525 41,000  Level Salt Lake Center
03:02AM 42.3067 -110.7119 250° West 453 521 41,000  Level Salt Lake Center
03:03AM 42.2681 -110.8628 251° West 448 516 41,000  Level Salt Lake Center
03:04AM 42.2286 -111.0208 251° West 445 512 41,000  Level Salt Lake Center
03:05AM 42.1903 -111.1778 252° West 443 510 41,000  Level Salt Lake Center
03:06AM 42.1522 -111.3331 252° West 440 506 41,000  Level Salt Lake Center
03:07AM 42.1133 -111.4908 252° West 444 511 41,000  Level Salt Lake Center
03:08AM 42.0753 -111.6469 252° West 443 510 41,000  Level Salt Lake Center
03:09AM 42.0367 -111.8044 252° West 445 512 41,000  Level Salt Lake Center
03:10AM 41.9986 -111.9633 252° West 448 516 41,000  Level Salt Lake Center
03:11AM 41.9608 -112.1211 252° West 448 516 41,000  Level Salt Lake Center
03:12AM 41.9228 -112.2783 252° West 447 514 41,000  Level Salt Lake Center
03:13AM 41.8842 -112.4367 252° West 449 517 41,000  Level Salt Lake Center
03:14AM 41.8372 -112.6281 252° West 452 520 41,000  Level Salt Lake Center
03:15AM 41.7997 -112.7856 252° West 448 516 41,000  Level Salt Lake Center
03:16AM 41.7622 -112.9444 252° West 449 517 41,000  Level Salt Lake Center
03:17AM 41.7219 -113.1036 251° West 452 520 41,000  Level Salt Lake Center
03:18AM 41.6836 -113.2633 252° West 454 522 41,000  Level Salt Lake Center
03:19AM 41.6444 -113.4222 252° West 452 520 41,000  Level Salt Lake Center
03:20AM 41.6050 -113.5800 252° West 451 519 41,000  Level Salt Lake Center
03:21AM 41.5625 -113.7386 250° West 455 524 41,000  Level Salt Lake Center
03:22AM 41.5219 -113.8983 251° West 455 524 41,000  Level Salt Lake Center
03:23AM 41.4800 -114.0569 251° West 455 524 41,000  Level Salt Lake Center
03:24AM 41.4403 -114.2169 252° West 456 525 41,000  Level Salt Lake Center
03:25AM 41.3972 -114.3764 250° West 458 527 41,000  Level Salt Lake Center
03:26AM 41.3564 -114.5375 251° West 462 532 41,000  Level Salt Lake Center
03:27AM 41.3178 -114.7019 253° West 465 535 41,000  Level Salt Lake Center
03:28AM 41.2725 -114.8819 252° West 469 540 41,000  Level Salt Lake Center
03:29AM 41.2322 -115.0389 251° West 469 540 41,000  Level Salt Lake Center
03:30AM 41.1919 -115.1950 251° West 466 536 41,000  Level Salt Lake Center
03:31AM 41.1447 -115.3767 251° West 467 537 41,000  Level Salt Lake Center
03:32AM 41.1047 -115.5336 251° West 468 539 41,000  Level Salt Lake Center
03:33AM 41.0669 -115.6903 252° West 468 539 41,000  Level Salt Lake Center
03:34AM 41.0219 -115.8733 252° West 467 537 41,000  Level Salt Lake Center
03:35AM 40.9833 -116.0278 252° West 463 533 41,000  Level Salt Lake Center
03:36AM 40.9425 -116.1817 251° West 464 534 41,000  Level Salt Lake Center
03:37AM 40.8964 -116.3619 251° West 464 534 41,000  Level Salt Lake Center
03:38AM 40.8547 -116.5133 250° West 461 531 41,000  Level Salt Lake Center
03:39AM 40.8144 -116.6656 251° West 461 531 41,000  Level Salt Lake Center
03:40AM 40.7681 -116.8417 251° West 459 528 41,000  Level Salt Lake Center
03:41AM 40.7267 -116.9925 250° West 460 529 41,000  Level Salt Lake Center
03:42AM 40.6878 -117.1456 252° West 462 532 41,000  Level Salt Lake Center
03:43AM 40.6439 -117.3250 252° West 464 534 41,000  Level Salt Lake Center
03:44AM 40.6072 -117.4803 253° West 465 535 41,000  Level Salt Lake Center
03:45AM 40.5694 -117.6342 252° West 465 535 41,000  Level Salt Lake Center
03:46AM 40.5261 -117.8153 253° West 465 535 41,000  Level Salt Lake Center
03:47AM 40.5100 -117.8928 255° West 464 534 41,000  Level Oakland Center
03:48AM 40.4717 -118.0558 253° West 467 537 41,000  Level Oakland Center
03:49AM 40.4322 -118.2161 252° West 466 536 41,000  Level Oakland Center
03:50AM 40.3942 -118.3781 253° West 466 536 41,000  Level Oakland Center
03:51AM 40.3553 -118.5383 252° West 463 533 41,000  Level Oakland Center
03:52AM 40.3181 -118.6986 253° West 462 532 41,000  Level Oakland Center
03:52AM 40.2983 -118.7697 250° West 463 533 41,000  Level Salt Lake Center
03:53AM 40.2553 -118.9536 253° West 464 534 41,000  Level Salt Lake Center
03:54AM 40.2400 -119.0194 253° West 464 534 41,000  Level Oakland Center
03:55AM 40.2036 -119.1806 254° West 464 534 41,000  Level Oakland Center
03:56AM 40.1681 -119.3408 254° West 462 532 41,000  Level Oakland Center
03:57AM 40.1319 -119.4994 253° West 458 527 41,000  Level Oakland Center
03:58AM 40.0958 -119.6581 253° West 457 526 41,000  Level Oakland Center
03:59AM 40.0603 -119.8164 254° West 456 525 41,000  Level Oakland Center
04:00AM 40.0250 -119.9744 254° West 455 524 41,000  Level Oakland Center
04:01AM 39.9886 -120.1358 254° West 452 520 41,000  Level Oakland Center
04:02AM 39.9536 -120.2939 254° West 454 522 41,000  Level Oakland Center
04:03AM 39.9189 -120.4511 254° West 453 521 41,000  Level Oakland Center
04:04AM 39.8825 -120.6094 253° West 457 526 41,000  Level Oakland Center
04:05AM 39.8481 -120.7683 254° West 458 527 41,000  Level Oakland Center
04:06AM 39.8125 -120.9264 254° West 456 525 41,000  Level Oakland Center
04:07AM 39.7781 -121.0856 254° West 459 528 41,000  Level Oakland Center
04:08AM 39.7458 -121.2381 255° West 459 528 41,000  Level Oakland Center
04:09AM 39.7122 -121.3994 255° West 461 531 41,000  Level Oakland Center
04:10AM 39.6781 -121.5581 254° West 458 527 41,000  Level Oakland Center
04:11AM 39.6456 -121.7167 255° West 455 524 41,000  Level Oakland Center
04:12AM 39.6150 -121.8764 256° West 454 522 41,000  Level Oakland Center
04:13AM 39.5844 -122.0358 256° West 455 524 41,000  Level Oakland Center
04:14AM 39.5550 -122.1944 257° West 452 520 41,000  Level Oakland Center
04:15AM 39.5244 -122.3556 256° West 456 525 41,000  Level Oakland Center
04:16AM 39.4950 -122.5175 257° West 459 528 41,000  Level Oakland Center
04:17AM 39.4650 -122.6761 256° West 455 524 41,000  Level Oakland Center
04:18AM 39.4325 -122.8367 255° West 458 527 41,000  Level Oakland Center
04:19AM 39.4047 -122.9939 257° West 452 520 41,000  Level Oakland Center
04:20AM 39.3733 -123.1536 256° West 456 525 41,000  Level Oakland Center
04:21AM 39.3928 -123.3108 279° West 454 522 41,000  Level Oakland Center
04:22AM 39.4889 -123.4442 313° West 458 527 41,000  Level Oakland Center
04:23AM 39.5417 -123.5869 296° West 454 522 41,000  Level Oakland Center
04:24AM 39.5650 -123.7464 281° West 452 520 41,000 -60 Level Oakland Center
04:25AM 39.5517 -123.9017 264° West 449 517 40,900  Descending Oakland Center
04:26AM 39.4447 -123.9892 212° Southwest 468 539 41,000  Climbing Oakland Center
04:27AM 39.3283 -123.9458 164° South 505 581 41,000 420 Level Oakland Center
04:28AM 39.2286 -123.7697 126° Southeast 537 618 41,900 600 Climbing Oakland Center
04:29AM 39.1594 -123.6297 122° Southeast 535 616 42,300 420 Climbing Oakland Center
04:30AM 39.0769 -123.4717 124° Southeast 533 613 42,800 300 Climbing Oakland Center
04:31AM 38.9947 -123.3153 124° Southeast 530 610 42,900  Climbing Oakland Center
04:32AM 38.9119 -123.1597 124° Southeast 529 609 42,900  Level Oakland Center
04:33AM 38.8289 -123.0025 124° Southeast 530 610 43,000  Climbing Oakland Center
04:34AM 38.7461 -122.8436 124° Southeast 534 615 42,900 -60 Descending Oakland Center
04:35AM 38.6611 -122.6881 125° Southeast 534 615 42,900  Level Oakland Center
04:36AM 38.5772 -122.5283 124° Southeast 536 617 42,900  Level Oakland Center
04:37AM 38.4944 -122.3661 123° Southeast 541 623 42,900  Level Oakland Center
04:38AM 38.4108 -122.2064 124° Southeast 540 621 42,900  Level Oakland Center
04:39AM 38.3275 -122.0461 124° Southeast 540 621 42,900  Level Oakland Center
04:40AM 38.2433 -121.8889 124° Southeast 537 618 42,900  Level Oakland Center
04:41AM 38.1603 -121.7297 124° Southeast 537 618 42,900  Level Oakland Center
04:42AM 38.0769 -121.5692 123° Southeast 542 624 42,900  Level Oakland Center
04:43AM 37.9850 -121.3956 124° Southeast 539 620 43,000  Climbing Oakland Center
04:44AM 37.9036 -121.2383 123° Southeast 538 619 43,000  Level Oakland Center
04:45AM 37.8217 -121.0806 123° Southeast 540 621 43,000  Level Oakland Center
04:46AM 37.7392 -120.9239 124° Southeast 537 618 43,000  Level Oakland Center
04:47AM 37.6581 -120.7656 123° Southeast 538 619 43,000  Level Oakland Center
04:48AM 37.5767 -120.6072 123° Southeast 539 620 43,000  Level Oakland Center
04:49AM 37.4950 -120.4492 123° Southeast 539 620 43,000  Level Oakland Center
04:50AM 37.4133 -120.2903 123° Southeast 540 621 43,000  Level Oakland Center
04:51AM 37.3306 -120.1333 124° Southeast 541 623 43,000  Level Oakland Center
04:52AM 37.2494 -119.9744 123° Southeast 542 624 43,000  Level Oakland Center
04:53AM 37.1692 -119.8156 122° Southeast 540 621 43,000 -60 Level Oakland Center
04:54AM 37.0892 -119.6575 122° Southeast 543 625 42,900  Descending Oakland Center
04:55AM 37.0075 -119.4978 123° Southeast 546 628 43,000  Climbing Oakland Center
04:56AM 36.9261 -119.3386 123° Southeast 545 627 43,000 -60 Level Oakland Center
04:57AM 36.8458 -119.1778 122° Southeast 544 626 42,900 -60 Descending Oakland Center
04:58AM 36.7658 -119.0186 122° Southeast 543 625 42,900  Level Oakland Center
04:59AM 36.6853 -118.8597 122° Southeast 542 624 42,900  Level Oakland Center
05:00AM 36.6047 -118.7003 122° Southeast 543 625 42,900 60 Level Oakland Center
05:00AM 36.5656 -118.6211 122° Southeast 543 625 43,000 60 Climbing Los Angeles Center
05:01AM 36.4856 -118.4617 122° Southeast 543 625 43,000  Level Los Angeles Center
05:02AM 36.4058 -118.3047 122° Southeast 540 621 43,000 -60 Level Los Angeles Center
05:03AM 36.3253 -118.1458 122° Southeast 543 625 42,900  Descending Los Angeles Center
05:04AM 36.2467 -117.9867 121° Southeast 543 625 43,000  Climbing Los Angeles Center
05:05AM 36.1675 -117.8294 122° Southeast 539 620 43,000  Level Los Angeles Center
05:06AM 36.0872 -117.6686 122° Southeast 544 626 43,000  Level Los Angeles Center
05:07AM 36.0072 -117.5089 122° Southeast 545 627 43,000  Level Los Angeles Center
05:08AM 35.9272 -117.3508 122° Southeast 544 626 43,000  Level Los Angeles Center
05:09AM 35.8467 -117.1942 122° Southeast 542 624 43,000  Level Los Angeles Center
05:10AM 35.7658 -117.0372 122° Southeast 541 623 43,000  Level Los Angeles Center
05:11AM 35.6864 -116.8811 122° Southeast 538 619 43,000  Level Los Angeles Center
05:12AM 35.6058 -116.7250 122° Southeast 536 617 43,000  Level Los Angeles Center
05:13AM 35.5250 -116.5664 122° Southeast 542 624 43,000  Level Los Angeles Center
05:14AM 35.4436 -116.4114 123° Southeast 541 623 43,000  Level Los Angeles Center
05:16AM 35.3342 -116.1928 121° Southeast 539 620 43,000  Level Los Angeles Center
05:17AM 35.2561 -116.0336 121° Southeast 545 627 43,000  Level Los Angeles Center
05:18AM 35.1811 -115.8764 120° Southeast 538 619 43,000  Level Los Angeles Center
05:19AM 35.1047 -115.7183 121° Southeast 538 619 43,000  Level Los Angeles Center
05:20AM 35.0264 -115.5592 121° Southeast 544 626 43,000  Level Los Angeles Center
05:21AM 34.9483 -115.4006 121° Southeast 545 627 43,000  Level Los Angeles Center
05:22AM 34.8786 -115.2569 121° Southeast 540 621 43,000  Level Los Angeles Center
05:23AM 34.8000 -115.1014 122° Southeast 541 623 43,000  Level Los Angeles Center
05:24AM 34.7156 -114.9522 125° Southeast 538 619 43,000 -60 Level Los Angeles Center
05:25AM 34.6211 -114.7839 124° Southeast 535 616 42,900  Descending Los Angeles Center
05:26AM 34.5353 -114.6358 125° Southeast 537 618 43,000  Climbing Los Angeles Center
05:27AM 34.4517 -114.4850 124° Southeast 538 619 42,900 -60 Descending Los Angeles Center
05:28AM 34.3675 -114.3367 124° Southeast 535 616 42,900 60 Level Los Angeles Center
05:28AM 34.3281 -114.2667 124° Southeast 537 618 43,000 60 Climbing Albuquerque Center
05:29AM 34.2458 -114.1161 123° Southeast 537 618 43,000  Level Albuquerque Center
05:30AM 34.1625 -113.9692 124° Southeast 532 612 43,000  Level Albuquerque Center
05:31AM 34.0844 -113.8286 124° Southeast 532 612 43,000  Level Albuquerque Center
05:32AM 34.0044 -113.6836 124° Southeast 524 603 43,000  Level Albuquerque Center
05:33AM 33.9236 -113.5367 124° Southeast 525 604 43,000  Level Albuquerque Center
05:34AM 33.8444 -113.3906 123° Southeast 524 603 43,000  Level Albuquerque Center
05:35AM 33.7631 -113.2467 124° Southeast 524 603 43,000  Level Albuquerque Center
05:36AM 33.6825 -113.1017 124° Southeast 522 601 43,000 -60 Level Albuquerque Center
05:37AM 33.5894 -112.9339 124° Southeast 524 603 42,900 -60 Descending Albuquerque Center
05:38AM 33.5092 -112.7864 123° Southeast 526 605 42,900  Level Albuquerque Center
05:39AM 33.4319 -112.6361 122° Southeast 527 606 42,900  Level Albuquerque Center
05:40AM 33.3533 -112.4856 122° Southeast 527 606 43,000  Climbing Albuquerque Center
05:41AM 33.2758 -112.3378 122° Southeast 528 608 43,000  Level Albuquerque Center
05:42AM 33.1997 -112.1869 121° Southeast 532 612 43,000  Level Albuquerque Center
05:43AM 33.1211 -112.0386 122° Southeast 533 613 43,000  Level Albuquerque Center
05:44AM 33.0447 -111.8883 121° Southeast 532 612 43,000  Level Albuquerque Center
05:45AM 32.9386 -111.7825 140° Southeast 508 585 43,000  Level Albuquerque Center
05:46AM 32.8114 -111.8019 187° South 465 535 43,000  Level Albuquerque Center
05:47AM 32.7353 -111.9133 231° Southwest 435 501 43,000  Level Albuquerque Center
05:48AM 32.7186 -112.0544 262° West 428 493 43,000  Level Albuquerque Center
05:49AM 32.7583 -112.1878 290° West 427 491 43,000 -60 Level Albuquerque Center
05:50AM 32.8372 -112.3011 310° West 435 501 42,900  Descending Albuquerque Center
05:51AM 32.9222 -112.4036 315° West 439 505 43,000  Climbing Albuquerque Center
05:52AM 33.0097 -112.5075 315° West 445 512 43,000  Level Albuquerque Center
05:53AM 33.0969 -112.6097 316° Northwest 445 512 43,000 -60 Level Albuquerque Center
05:55AM 33.1842 -112.7106 316° Northwest 442 509 42,900 -60 Descending Albuquerque Center
05:56AM 33.2717 -112.8131 316° Northwest 441 507 42,900  Level Albuquerque Center
05:57AM 33.3581 -112.9147 316° Northwest 440 506 42,900  Level Albuquerque Center
05:58AM 33.4447 -113.0172 315° West 439 505 42,900  Level Albuquerque Center
05:59AM 33.5317 -113.1186 316° Northwest 439 505 42,900  Level Albuquerque Center
06:00AM 33.6183 -113.2217 315° West 439 505 42,900  Level Albuquerque Center
06:01AM 33.7117 -113.3286 316° Northwest 441 507 43,000  Climbing Albuquerque Center
06:02AM 33.7986 -113.4294 316° Northwest 437 503 43,000  Level Albuquerque Center
06:03AM 33.8864 -113.5311 316° Northwest 437 503 43,000  Level Albuquerque Center
06:04AM 33.9728 -113.6331 316° Northwest 436 502 43,000  Level Albuquerque Center
06:05AM 34.0603 -113.7328 317° Northwest 434 499 43,000  Level Albuquerque Center
06:06AM 34.1522 -113.8431 315° West 429 494 43,000  Level Albuquerque Center
06:07AM 34.2386 -113.9431 316° Northwest 428 493 43,000  Level Albuquerque Center
06:08AM 34.3247 -114.0450 316° Northwest 431 496 43,000  Level Albuquerque Center
06:09AM 34.4119 -114.1436 317° Northwest 431 496 43,000 -60 Level Albuquerque Center
06:09AM 34.4711 -114.2106 317° Northwest 424 488 42,900 -60 Descending Los Angeles Center
06:10AM 34.5572 -114.3108 316° Northwest 429 494 42,900  Level Los Angeles Center
06:11AM 34.6533 -114.4244 316° Northwest 426 490 43,000  Climbing Los Angeles Center
06:12AM 34.7397 -114.5239 317° Northwest 427 491 43,000  Level Los Angeles Center
06:13AM 34.8267 -114.6228 317° Northwest 427 491 43,000  Level Los Angeles Center
06:14AM 34.9144 -114.7250 316° Northwest 433 498 43,000  Level Los Angeles Center
06:15AM 35.0003 -114.8283 315° West 434 499 43,000  Level Los Angeles Center
06:16AM 35.0875 -114.9294 317° Northwest 431 496 43,000  Level Los Angeles Center
06:17AM 35.1764 -115.0331 316° Northwest 438 504 43,000  Level Los Angeles Center
06:18AM 35.2661 -115.1347 317° Northwest 439 505 43,000  Level Los Angeles Center
06:19AM 35.3556 -115.2375 317° Northwest 439 505 43,000  Level Los Angeles Center
06:20AM 35.4431 -115.3369 317° Northwest 432 497 43,000  Level Los Angeles Center
06:21AM 35.5319 -115.4442 316° Northwest 440 506 43,000  Level Los Angeles Center
06:22AM 35.6203 -115.5469 317° Northwest 438 504 43,000  Level Los Angeles Center
06:23AM 35.7108 -115.6458 318° Northwest 435 501 43,000  Level Los Angeles Center
06:24AM 35.7983 -115.7469 317° Northwest 430 495 43,000  Level Los Angeles Center
06:25AM 35.8897 -115.8467 319° Northwest 434 499 43,000  Level Los Angeles Center
06:26AM 35.9750 -115.9381 319° Northwest 430 495 43,000  Level Los Angeles Center
06:27AM 36.0600 -116.0267 320° Northwest 429 494 43,000  Level Los Angeles Center
06:28AM 36.1511 -116.1228 320° Northwest 429 494 43,000  Level Los Angeles Center
06:29AM 36.2456 -116.2239 319° Northwest 428 493 43,000  Level Los Angeles Center
06:30AM 36.3369 -116.3189 320° Northwest 430 495 43,000  Level Los Angeles Center
06:31AM 36.4286 -116.4156 320° Northwest 433 498 43,000  Level Los Angeles Center
06:32AM 36.5311 -116.5269 319° Northwest 437 503 43,000  Level Los Angeles Center
06:33AM 36.6100 -116.6092 320° Northwest 439 505 43,000  Level Los Angeles Center
06:34AM 36.7044 -116.7067 320° Northwest 440 506 43,000  Level Los Angeles Center
06:35AM 36.7983 -116.8058 320° Northwest 441 507 43,000  Level Los Angeles Center
06:36AM 36.8925 -116.9072 319° Northwest 445 512 43,000  Level Los Angeles Center
06:37AM 36.9856 -117.0072 319° Northwest 441 507 43,000  Level Los Angeles Center
06:38AM 37.0803 -117.1081 320° Northwest 444 511 43,000  Level Los Angeles Center
06:39AM 37.1736 -117.2100 319° Northwest 445 512 43,000  Level Los Angeles Center
06:40AM 37.2683 -117.3114 320° Northwest 445 512 43,000  Level Los Angeles Center
06:41AM 37.3636 -117.4125 320° Northwest 446 513 43,000  Level Los Angeles Center
06:42AM 37.4589 -117.5147 320° Northwest 448 516 43,000  Level Los Angeles Center
06:43AM 37.5572 -117.6167 321° Northwest 453 521 43,000  Level Los Angeles Center
06:44AM 37.6544 -117.7197 320° Northwest 454 522 43,000  Level Los Angeles Center
06:45AM 37.7511 -117.8233 320° Northwest 453 521 43,000  Level Los Angeles Center
06:46AM 37.8475 -117.9258 320° Northwest 450 518 43,000  Level Los Angeles Center
06:47AM 37.9450 -118.0294 320° Northwest 453 521 43,000  Level Los Angeles Center
06:48AM 38.0431 -118.1331 320° Northwest 455 524 43,000  Level Los Angeles Center
06:50AM 38.1408 -118.2353 321° Northwest 454 522 43,000  Level Los Angeles Center
06:51AM 38.2392 -118.3369 321° Northwest 453 521 43,000  Level Los Angeles Center
06:52AM 38.3381 -118.4389 321° Northwest 454 522 43,000  Level Los Angeles Center
06:53AM 38.4350 -118.5419 320° Northwest 453 521 43,000  Level Los Angeles Center
06:54AM 38.5314 -118.6461 320° Northwest 453 521 43,000  Level Los Angeles Center
06:55AM 38.6278 -118.7494 320° Northwest 452 520 43,000  Level Los Angeles Center
06:56AM 38.7242 -118.8542 320° Northwest 453 521 43,000  Level Los Angeles Center
06:57AM 38.8203 -118.9589 320° Northwest 453 521 43,000  Level Los Angeles Center
06:58AM 38.9133 -119.0614 319° Northwest 452 520 43,000 -60 Level Los Angeles Center
06:59AM 39.0086 -119.1667 319° Northwest 453 521 42,900  Descending Los Angeles Center
07:00AM 39.1053 -119.2731 320° Northwest 455 524 43,000  Climbing Los Angeles Center
07:01AM 39.2022 -119.3789 320° Northwest 456 525 42,900 -60 Descending Los Angeles Center
07:02AM 39.2989 -119.4847 320° Northwest 457 526 42,900  Level Los Angeles Center
07:03AM 39.3953 -119.5889 320° Northwest 456 525 42,900  Level Los Angeles Center
07:04AM 39.5119 -119.7147 320° Northwest 456 525 42,900  Level Los Angeles Center
07:05AM 39.6211 -119.8306 321° Northwest 458 527 43,000  Climbing Oakland Center
07:06AM 39.7194 -119.9364 320° Northwest 459 528 43,000  Level Oakland Center
07:07AM 39.8183 -120.0436 320° Northwest 461 531 43,000  Level Oakland Center
07:08AM 39.9214 -120.1553 320° Northwest 459 528 43,000  Level Oakland Center
07:09AM 40.0200 -120.2619 320° Northwest 462 532 43,000  Level Oakland Center
07:10AM 40.1133 -120.3647 320° Northwest 461 531 43,000  Level Oakland Center
07:11AM 40.2186 -120.4769 321° Northwest 457 526 43,000  Level Oakland Center
07:12AM 40.3167 -120.5808 321° Northwest 455 524 43,000  Level Oakland Center
07:13AM 40.4286 -120.6581 332° Northwest 464 534 43,000  Level Oakland Center
07:14AM 40.5083 -120.7817 310° West 467 537 43,000  Level Oakland Center
07:15AM 40.4842 -120.9353 258° West 446 513 43,000  Level Oakland Center
07:16AM 40.3697 -121.0061 205° Southwest 466 536 43,000  Level Oakland Center
07:17AM 40.2353 -120.9661 167° South 489 563 43,000  Level Oakland Center
07:18AM 40.1000 -120.9261 167° South 495 570 43,000  Level Oakland Center
07:19AM 39.9675 -120.8831 166° South 498 573 43,000  Level Oakland Center
07:20AM 39.8342 -120.8278 162° South 501 577 43,000  Level Oakland Center
07:21AM 39.7000 -120.7753 163° South 501 577 43,000  Level Oakland Center
07:22AM 39.5667 -120.7239 163° South 498 573 43,000  Level Oakland Center
07:23AM 39.4319 -120.6708 163° South 502 578 43,000  Level Oakland Center
07:24AM 39.2972 -120.6186 163° South 503 579 43,000  Level Oakland Center
07:25AM 39.1639 -120.5658 163° South 498 573 43,000  Level Oakland Center
07:26AM 39.0281 -120.5139 163° South 502 578 43,000  Level Oakland Center
07:27AM 38.8919 -120.4592 163° South 506 582 43,000  Level Oakland Center
07:28AM 38.7544 -120.4039 163° South 512 589 43,000  Level Oakland Center
07:29AM 38.6175 -120.3478 162° South 513 590 43,000  Level Oakland Center
07:30AM 38.4817 -120.2919 162° South 510 587 43,000  Level Oakland Center
07:31AM 38.3456 -120.2339 162° South 512 589 43,000  Level Oakland Center
07:32AM 38.2089 -120.1764 162° South 514 592 43,000  Level Oakland Center
07:33AM 38.0731 -120.1181 161° South 513 590 43,000  Level Oakland Center
07:34AM 37.9386 -120.0622 162° South 508 585 43,000  Level Oakland Center
07:35AM 37.8042 -120.0075 162° South 506 582 43,000  Level Oakland Center
07:36AM 37.6689 -119.9517 162° South 509 586 43,000  Level Oakland Center
07:37AM 37.5350 -119.8953 162° South 507 583 43,000  Level Oakland Center
07:38AM 37.4003 -119.8389 162° South 508 585 43,000 -60 Level Oakland Center
07:39AM 37.2786 -119.7889 162° South 507 583 42,900 -60 Descending Oakland Center
07:40AM 37.1458 -119.7331 161° South 504 580 42,900  Level Oakland Center
07:41AM 37.0131 -119.6775 162° South 503 579 42,900  Level Oakland Center
07:42AM 36.8800 -119.6256 163° South 501 577 42,900  Level Oakland Center
07:43AM 36.7478 -119.5728 162° South 498 573 43,000  Climbing Oakland Center
07:44AM 36.6156 -119.5203 162° South 498 573 43,000  Level Oakland Center
07:45AM 36.4836 -119.4664 162° South 499 574 43,000 -60 Level Oakland Center
07:46AM 36.3514 -119.4128 162° South 500 575 42,900  Descending Oakland Center
07:47AM 36.2194 -119.3611 162° South 498 573 43,000  Climbing Oakland Center
07:48AM 36.0889 -119.3053 161° South 495 570 42,900  Descending Oakland Center
07:49AM 35.9950 -119.1706 131° Southeast 518 596 43,000 -60 Climbing Oakland Center
07:50AM 35.9164 -119.0172 122° Southeast 524 603 42,800 -540 Descending Oakland Center
07:51AM 35.8378 -118.8642 122° Southeast 528 608 42,000 -840 Descending Oakland Center
07:52AM 35.7564 -118.7111 123° Southeast 531 611 41,200 -780 Descending Oakland Center
07:53AM 35.6728 -118.5617 125° Southeast 532 612 40,500 -1,440 Descending Oakland Center
07:54AM 35.5967 -118.4203 123° Southeast 505 581 38,300 -2,700 Descending Oakland Center
07:55AM 35.5244 -118.2789 122° Southeast 492 566 35,100 -3,300 Descending Oakland Center
07:56AM 35.4481 -118.1331 123° Southeast 504 580 31,700 -2,940 Descending Oakland Center
07:57AM 35.3719 -117.9911 123° Southeast 499 574 29,300 -1,920 Descending Oakland Center
07:58AM 35.2886 -117.8397 124° Southeast 485 558 27,900 -1,860 Descending Oakland Center
07:59AM 35.2078 -117.6583 119° Southeast 471 542 24,700 -2,100 Descending Los Angeles Center
08:00AM 35.2053 -117.4850 91° East 488 562 22,800 -1,680 Descending Los Angeles Center
08:01AM 35.2036 -117.3244 91° East 478 550 21,400 -1,500 Descending Los Angeles Center
08:02AM 35.2014 -117.1806 91° East 445 512 19,800 -1,560 Descending Los Angeles Center
08:03AM 35.1322 -117.0833 131° Southeast 412 474 18,300 -1,500 Descending Los Angeles Center
08:04AM 35.0475 -117.1144 197° South 370 426 16,900 -1,200 Descending Los Angeles Center
08:05AM 34.9992 -117.2086 238° Southwest 342 394 15,900 -780 Descending Los Angeles Center
08:06AM 34.9436 -117.3017 234° Southwest 335 386 15,400 -900 Descending Los Angeles Center
08:07AM 34.8847 -117.3992 234° Southwest 346 398 14,200 -1,500 Descending Los Angeles Center
08:08AM 34.8292 -117.4908 234° Southwest 334 384 12,500 -1,620 Descending Los Angeles Center
08:09AM 34.7767 -117.5794 234° Southwest 325 374 11,000 -1,260 Descending Los Angeles Center
08:10AM 34.7286 -117.6572 233° Southwest 299 344 10,000 -1,440 Descending Los Angeles Center
08:11AM 34.6808 -117.7189 227° Southwest 279 321 8,200 -1,440 Descending Los Angeles Center
08:12AM 34.6342 -117.6769 144° Southeast 254 292 7,200 -900 Descending Los Angeles Center
08:13AM 34.6725 -117.6769 360° North 225 259 6,400 -960 Descending Los Angeles Center
08:15AM 34.6464 -117.7358 242° Southwest 183 211 5,100 -600 Descending Los Angeles Center
08:16AM 34.6472 -117.7908 271° West 170 196 5,100 -60 Level Los Angeles Center
08:17AM 34.6442 -117.8453 266° West 165 190 5,000 -60 Descending Los Angeles Center
08:18AM 34.6408 -117.8958 265° West 158 182 5,000 -180 Level Los Angeles Center
08:19AM 34.6386 -117.9419 267° West 149 171 4,700 -540 Descending Los Angeles Center
08:20AM 34.6358 -117.9872 266° West 142 163 4,000 -720 Descending Los Angeles Center
08:21AM 34.6339 -118.0303 267° West 135 155 3,300 -720 Descending Los Angeles Center
08:22AM 34.6319 -118.0733 267° West 130 150 2,600 -420 Descending Los Angeles Center
08:23AM 34.6328 -118.1053 272° West 164 189 2,500 -120 Descending Los Angeles Center